sensor_id;sensor_type;location;lat;lon;timestamp;P1;durP1;ratioP1;P2;durP2;ratioP2
43529;SDS011;55654;50.966;6.878;2022-12-07T00:01:18;45.67;;;27.03;;
43529;SDS011;55654;50.966;6.878;2022-12-07T00:03:45;42.97;;;25.70;;
43529;SDS011;55654;50.966;6.878;2022-12-07T00:06:11;50.53;;;28.50;;
43529;SDS011;55654;50.966;6.878;2022-12-07T00:08:38;45.17;;;25.50;;
43529;SDS011;55654;50.966;6.878;2022-12-07T00:11:05;42.47;;;26.77;;
43529;SDS011;55654;50.966;6.878;2022-12-07T00:13:32;48.23;;;26.77;;
43529;SDS011;55654;50.966;6.878;2022-12-07T00:16:05;46.00;;;27.53;;
43529;SDS011;55654;50.966;6.878;2022-12-07T00:18:32;45.47;;;26.70;;
43529;SDS011;55654;50.966;6.878;2022-12-07T00:23:27;56.60;;;28.13;;
43529;SDS011;55654;50.966;6.878;2022-12-07T00:25:53;45.07;;;27.43;;
43529;SDS011;55654;50.966;6.878;2022-12-07T00:28:19;50.80;;;29.10;;
43529;SDS011;55654;50.966;6.878;2022-12-07T00:30:45;40.97;;;26.77;;
43529;SDS011;55654;50.966;6.878;2022-12-07T00:33:11;42.97;;;26.27;;
43529;SDS011;55654;50.966;6.878;2022-12-07T00:35:40;45.10;;;26.17;;
43529;SDS011;55654;50.966;6.878;2022-12-07T00:38:06;45.47;;;28.03;;
43529;SDS011;55654;50.966;6.878;2022-12-07T00:40:32;43.27;;;26.80;;
43529;SDS011;55654;50.966;6.878;2022-12-07T00:43:01;47.20;;;28.63;;
43529;SDS011;55654;50.966;6.878;2022-12-07T00:45:27;48.37;;;28.13;;
43529;SDS011;55654;50.966;6.878;2022-12-07T00:47:53;46.07;;;27.93;;
43529;SDS011;55654;50.966;6.878;2022-12-07T00:50:19;46.10;;;25.50;;
43529;SDS011;55654;50.966;6.878;2022-12-07T00:52:45;46.53;;;26.73;;
43529;SDS011;55654;50.966;6.878;2022-12-07T00:55:11;45.07;;;27.20;;
43529;SDS011;55654;50.966;6.878;2022-12-07T00:57:37;41.50;;;27.07;;
43529;SDS011;55654;50.966;6.878;2022-12-07T01:00:03;45.57;;;27.13;;
43529;SDS011;55654;50.966;6.878;2022-12-07T01:02:29;44.40;;;25.70;;
43529;SDS011;55654;50.966;6.878;2022-12-07T01:04:55;39.97;;;25.23;;
43529;SDS011;55654;50.966;6.878;2022-12-07T01:07:21;42.13;;;26.23;;
43529;SDS011;55654;50.966;6.878;2022-12-07T01:09:47;45.37;;;28.03;;
43529;SDS011;55654;50.966;6.878;2022-12-07T01:12:13;44.97;;;27.20;;
43529;SDS011;55654;50.966;6.878;2022-12-07T01:14:44;50.50;;;28.53;;
43529;SDS011;55654;50.966;6.878;2022-12-07T01:17:10;49.67;;;29.60;;
43529;SDS011;55654;50.966;6.878;2022-12-07T01:19:36;47.00;;;26.77;;
43529;SDS011;55654;50.966;6.878;2022-12-07T01:22:02;49.07;;;27.60;;
43529;SDS011;55654;50.966;6.878;2022-12-07T01:24:28;48.33;;;29.47;;
43529;SDS011;55654;50.966;6.878;2022-12-07T01:26:54;52.43;;;31.20;;
43529;SDS011;55654;50.966;6.878;2022-12-07T01:29:20;51.77;;;29.07;;
43529;SDS011;55654;50.966;6.878;2022-12-07T01:31:48;52.37;;;31.23;;
43529;SDS011;55654;50.966;6.878;2022-12-07T01:34:14;51.43;;;31.97;;
43529;SDS011;55654;50.966;6.878;2022-12-07T01:36:40;52.27;;;32.77;;
43529;SDS011;55654;50.966;6.878;2022-12-07T01:39:06;60.23;;;34.10;;
43529;SDS011;55654;50.966;6.878;2022-12-07T01:41:34;55.10;;;33.80;;
43529;SDS011;55654;50.966;6.878;2022-12-07T01:46:32;54.67;;;34.20;;
43529;SDS011;55654;50.966;6.878;2022-12-07T01:48:58;58.00;;;34.17;;
43529;SDS011;55654;50.966;6.878;2022-12-07T01:51:25;60.23;;;34.43;;
43529;SDS011;55654;50.966;6.878;2022-12-07T01:53:52;58.97;;;34.30;;
43529;SDS011;55654;50.966;6.878;2022-12-07T01:56:19;56.70;;;34.07;;
43529;SDS011;55654;50.966;6.878;2022-12-07T01:58:48;60.60;;;36.43;;
43529;SDS011;55654;50.966;6.878;2022-12-07T02:01:14;59.07;;;35.13;;
43529;SDS011;55654;50.966;6.878;2022-12-07T02:03:42;63.93;;;34.67;;
43529;SDS011;55654;50.966;6.878;2022-12-07T02:06:08;64.23;;;36.73;;
43529;SDS011;55654;50.966;6.878;2022-12-07T02:08:44;58.07;;;33.80;;
43529;SDS011;55654;50.966;6.878;2022-12-07T02:11:10;54.47;;;33.60;;
43529;SDS011;55654;50.966;6.878;2022-12-07T02:13:39;58.67;;;32.93;;
43529;SDS011;55654;50.966;6.878;2022-12-07T02:30:07;60.63;;;34.77;;
43529;SDS011;55654;50.966;6.878;2022-12-07T02:35:20;56.53;;;33.57;;
43529;SDS011;55654;50.966;6.878;2022-12-07T02:40:16;59.30;;;36.23;;
43529;SDS011;55654;50.966;6.878;2022-12-07T02:42:46;57.87;;;34.50;;
43529;SDS011;55654;50.966;6.878;2022-12-07T02:45:13;59.37;;;35.77;;
43529;SDS011;55654;50.966;6.878;2022-12-07T02:47:39;61.17;;;36.17;;
43529;SDS011;55654;50.966;6.878;2022-12-07T02:50:09;65.37;;;38.17;;
43529;SDS011;55654;50.966;6.878;2022-12-07T02:52:35;63.83;;;37.00;;
43529;SDS011;55654;50.966;6.878;2022-12-07T02:55:02;63.77;;;37.83;;
43529;SDS011;55654;50.966;6.878;2022-12-07T03:10:01;66.47;;;37.43;;
43529;SDS011;55654;50.966;6.878;2022-12-07T03:12:36;61.73;;;37.57;;
43529;SDS011;55654;50.966;6.878;2022-12-07T03:15:14;65.15;;;37.13;;
43529;SDS011;55654;50.966;6.878;2022-12-07T03:17:42;63.30;;;37.63;;
43529;SDS011;55654;50.966;6.878;2022-12-07T03:20:10;67.37;;;38.27;;
43529;SDS011;55654;50.966;6.878;2022-12-07T03:22:37;70.77;;;38.77;;
43529;SDS011;55654;50.966;6.878;2022-12-07T03:25:09;71.27;;;40.53;;
43529;SDS011;55654;50.966;6.878;2022-12-07T03:27:42;68.03;;;39.63;;
43529;SDS011;55654;50.966;6.878;2022-12-07T03:30:12;68.83;;;39.13;;
43529;SDS011;55654;50.966;6.878;2022-12-07T03:32:45;69.23;;;38.70;;
43529;SDS011;55654;50.966;6.878;2022-12-07T03:35:16;75.60;;;40.47;;
43529;SDS011;55654;50.966;6.878;2022-12-07T03:37:45;79.90;;;41.60;;
43529;SDS011;55654;50.966;6.878;2022-12-07T03:40:25;68.60;;;41.37;;
43529;SDS011;55654;50.966;6.878;2022-12-07T03:42:51;69.50;;;40.97;;
43529;SDS011;55654;50.966;6.878;2022-12-07T03:45:19;72.23;;;40.13;;
43529;SDS011;55654;50.966;6.878;2022-12-07T03:47:58;68.53;;;39.70;;
43529;SDS011;55654;50.966;6.878;2022-12-07T03:53:05;68.30;;;41.10;;
43529;SDS011;55654;50.966;6.878;2022-12-07T03:55:34;79.43;;;40.30;;
43529;SDS011;55654;50.966;6.878;2022-12-07T03:58:09;70.53;;;40.83;;
43529;SDS011;55654;50.966;6.878;2022-12-07T04:00:36;75.80;;;41.37;;
43529;SDS011;55654;50.966;6.878;2022-12-07T04:03:03;71.70;;;40.40;;
43529;SDS011;55654;50.966;6.878;2022-12-07T04:05:29;71.53;;;39.00;;
43529;SDS011;55654;50.966;6.878;2022-12-07T04:07:55;71.30;;;39.67;;
43529;SDS011;55654;50.966;6.878;2022-12-07T04:10:21;66.40;;;38.40;;
43529;SDS011;55654;50.966;6.878;2022-12-07T04:12:47;73.63;;;38.87;;
43529;SDS011;55654;50.966;6.878;2022-12-07T04:15:13;73.80;;;39.83;;
43529;SDS011;55654;50.966;6.878;2022-12-07T04:17:39;63.50;;;38.07;;
43529;SDS011;55654;50.966;6.878;2022-12-07T04:20:05;72.50;;;40.87;;
43529;SDS011;55654;50.966;6.878;2022-12-07T04:22:31;67.70;;;37.87;;
43529;SDS011;55654;50.966;6.878;2022-12-07T04:24:57;66.10;;;37.73;;
43529;SDS011;55654;50.966;6.878;2022-12-07T04:27:23;65.73;;;38.40;;
43529;SDS011;55654;50.966;6.878;2022-12-07T04:29:52;69.60;;;38.10;;
43529;SDS011;55654;50.966;6.878;2022-12-07T04:32:18;66.30;;;35.67;;
43529;SDS011;55654;50.966;6.878;2022-12-07T04:34:44;65.97;;;37.60;;
43529;SDS011;55654;50.966;6.878;2022-12-07T04:37:10;61.00;;;36.63;;
43529;SDS011;55654;50.966;6.878;2022-12-07T04:39:36;75.20;;;38.80;;
43529;SDS011;55654;50.966;6.878;2022-12-07T04:42:02;62.37;;;37.63;;
43529;SDS011;55654;50.966;6.878;2022-12-07T04:44:31;67.27;;;38.70;;
43529;SDS011;55654;50.966;6.878;2022-12-07T04:46:59;69.80;;;38.13;;
43529;SDS011;55654;50.966;6.878;2022-12-07T04:49:25;70.83;;;38.00;;
43529;SDS011;55654;50.966;6.878;2022-12-07T04:51:51;68.17;;;38.83;;
43529;SDS011;55654;50.966;6.878;2022-12-07T04:54:18;68.23;;;36.77;;
43529;SDS011;55654;50.966;6.878;2022-12-07T04:56:44;64.40;;;36.40;;
43529;SDS011;55654;50.966;6.878;2022-12-07T04:59:10;67.67;;;37.57;;
43529;SDS011;55654;50.966;6.878;2022-12-07T05:01:37;66.17;;;37.40;;
43529;SDS011;55654;50.966;6.878;2022-12-07T05:04:03;71.53;;;39.47;;
43529;SDS011;55654;50.966;6.878;2022-12-07T05:06:29;65.93;;;39.53;;
43529;SDS011;55654;50.966;6.878;2022-12-07T05:08:55;75.93;;;39.60;;
43529;SDS011;55654;50.966;6.878;2022-12-07T05:11:24;72.87;;;39.43;;
43529;SDS011;55654;50.966;6.878;2022-12-07T05:16:34;70.90;;;38.83;;
43529;SDS011;55654;50.966;6.878;2022-12-07T05:19:03;64.30;;;37.17;;
43529;SDS011;55654;50.966;6.878;2022-12-07T05:21:32;71.43;;;38.50;;
43529;SDS011;55654;50.966;6.878;2022-12-07T05:23:59;65.80;;;37.27;;
43529;SDS011;55654;50.966;6.878;2022-12-07T05:26:25;60.40;;;36.47;;
43529;SDS011;55654;50.966;6.878;2022-12-07T05:28:51;63.93;;;35.73;;
43529;SDS011;55654;50.966;6.878;2022-12-07T05:31:18;64.50;;;37.23;;
43529;SDS011;55654;50.966;6.878;2022-12-07T05:33:44;70.73;;;38.60;;
43529;SDS011;55654;50.966;6.878;2022-12-07T05:36:10;65.80;;;36.27;;
43529;SDS011;55654;50.966;6.878;2022-12-07T05:38:38;62.93;;;36.37;;
43529;SDS011;55654;50.966;6.878;2022-12-07T05:41:05;62.37;;;35.57;;
43529;SDS011;55654;50.966;6.878;2022-12-07T05:43:32;70.37;;;37.30;;
43529;SDS011;55654;50.966;6.878;2022-12-07T05:45:58;60.40;;;35.40;;
43529;SDS011;55654;50.966;6.878;2022-12-07T05:48:25;67.47;;;37.97;;
43529;SDS011;55654;50.966;6.878;2022-12-07T05:50:51;60.57;;;36.37;;
43529;SDS011;55654;50.966;6.878;2022-12-07T05:53:17;58.13;;;35.80;;
43529;SDS011;55654;50.966;6.878;2022-12-07T05:55:44;69.47;;;38.33;;
43529;SDS011;55654;50.966;6.878;2022-12-07T05:58:10;71.60;;;38.27;;
43529;SDS011;55654;50.966;6.878;2022-12-07T06:00:55;70.83;;;39.27;;
43529;SDS011;55654;50.966;6.878;2022-12-07T06:03:21;70.53;;;39.90;;
43529;SDS011;55654;50.966;6.878;2022-12-07T06:05:47;78.23;;;40.67;;
43529;SDS011;55654;50.966;6.878;2022-12-07T06:08:13;74.77;;;38.93;;
43529;SDS011;55654;50.966;6.878;2022-12-07T06:10:40;74.03;;;40.83;;
43529;SDS011;55654;50.966;6.878;2022-12-07T06:13:06;80.13;;;42.60;;
43529;SDS011;55654;50.966;6.878;2022-12-07T06:15:32;86.30;;;42.87;;
43529;SDS011;55654;50.966;6.878;2022-12-07T06:17:58;86.77;;;44.53;;
43529;SDS011;55654;50.966;6.878;2022-12-07T06:20:24;98.87;;;44.37;;
43529;SDS011;55654;50.966;6.878;2022-12-07T06:22:50;87.07;;;44.80;;
43529;SDS011;55654;50.966;6.878;2022-12-07T06:25:16;79.20;;;43.00;;
43529;SDS011;55654;50.966;6.878;2022-12-07T06:27:42;79.30;;;41.57;;
43529;SDS011;55654;50.966;6.878;2022-12-07T06:30:09;81.30;;;41.20;;
43529;SDS011;55654;50.966;6.878;2022-12-07T06:32:36;79.53;;;43.83;;
43529;SDS011;55654;50.966;6.878;2022-12-07T06:35:03;74.70;;;41.87;;
43529;SDS011;55654;50.966;6.878;2022-12-07T06:37:29;76.47;;;42.30;;
43529;SDS011;55654;50.966;6.878;2022-12-07T06:39:57;79.47;;;41.30;;
43529;SDS011;55654;50.966;6.878;2022-12-07T06:42:23;73.70;;;42.20;;
43529;SDS011;55654;50.966;6.878;2022-12-07T06:44:49;75.97;;;40.37;;
43529;SDS011;55654;50.966;6.878;2022-12-07T06:47:15;72.60;;;39.47;;
43529;SDS011;55654;50.966;6.878;2022-12-07T06:49:41;72.27;;;42.03;;
43529;SDS011;55654;50.966;6.878;2022-12-07T06:52:07;74.33;;;39.50;;
43529;SDS011;55654;50.966;6.878;2022-12-07T06:54:33;72.50;;;39.97;;
43529;SDS011;55654;50.966;6.878;2022-12-07T06:57:02;76.47;;;40.77;;
43529;SDS011;55654;50.966;6.878;2022-12-07T06:59:28;76.30;;;41.47;;
43529;SDS011;55654;50.966;6.878;2022-12-07T07:01:54;73.63;;;40.73;;
43529;SDS011;55654;50.966;6.878;2022-12-07T07:04:20;70.97;;;40.50;;
43529;SDS011;55654;50.966;6.878;2022-12-07T07:06:46;80.47;;;40.90;;
43529;SDS011;55654;50.966;6.878;2022-12-07T07:09:12;73.83;;;40.00;;
43529;SDS011;55654;50.966;6.878;2022-12-07T07:11:38;68.87;;;39.77;;
43529;SDS011;55654;50.966;6.878;2022-12-07T07:14:04;69.80;;;41.10;;
43529;SDS011;55654;50.966;6.878;2022-12-07T07:16:30;70.93;;;41.27;;
43529;SDS011;55654;50.966;6.878;2022-12-07T07:19:01;68.93;;;40.73;;
43529;SDS011;55654;50.966;6.878;2022-12-07T07:21:27;68.83;;;39.70;;
43529;SDS011;55654;50.966;6.878;2022-12-07T07:23:53;68.93;;;39.23;;
43529;SDS011;55654;50.966;6.878;2022-12-07T07:26:22;70.50;;;39.07;;
43529;SDS011;55654;50.966;6.878;2022-12-07T07:28:48;67.80;;;39.07;;
43529;SDS011;55654;50.966;6.878;2022-12-07T07:31:14;71.03;;;39.33;;
43529;SDS011;55654;50.966;6.878;2022-12-07T07:33:40;74.10;;;39.37;;
43529;SDS011;55654;50.966;6.878;2022-12-07T07:36:06;68.43;;;39.93;;
43529;SDS011;55654;50.966;6.878;2022-12-07T07:38:32;74.40;;;40.87;;
43529;SDS011;55654;50.966;6.878;2022-12-07T07:40:58;85.00;;;42.73;;
43529;SDS011;55654;50.966;6.878;2022-12-07T07:43:24;81.20;;;41.70;;
43529;SDS011;55654;50.966;6.878;2022-12-07T07:45:50;74.03;;;43.67;;
43529;SDS011;55654;50.966;6.878;2022-12-07T07:48:16;75.33;;;43.93;;
43529;SDS011;55654;50.966;6.878;2022-12-07T07:50:42;71.10;;;41.57;;
43529;SDS011;55654;50.966;6.878;2022-12-07T07:53:08;74.70;;;42.63;;
43529;SDS011;55654;50.966;6.878;2022-12-07T07:55:34;67.33;;;42.00;;
43529;SDS011;55654;50.966;6.878;2022-12-07T07:58:00;65.43;;;40.03;;
43529;SDS011;55654;50.966;6.878;2022-12-07T08:00:26;70.50;;;43.00;;
43529;SDS011;55654;50.966;6.878;2022-12-07T08:02:53;65.33;;;39.77;;
43529;SDS011;55654;50.966;6.878;2022-12-07T08:05:19;74.17;;;38.40;;
43529;SDS011;55654;50.966;6.878;2022-12-07T08:07:45;62.30;;;38.37;;
43529;SDS011;55654;50.966;6.878;2022-12-07T08:10:11;66.30;;;38.83;;
43529;SDS011;55654;50.966;6.878;2022-12-07T08:12:38;65.23;;;38.00;;
43529;SDS011;55654;50.966;6.878;2022-12-07T08:15:25;62.17;;;35.73;;
43529;SDS011;55654;50.966;6.878;2022-12-07T08:17:51;57.30;;;32.83;;
43529;SDS011;55654;50.966;6.878;2022-12-07T08:20:17;52.93;;;31.87;;
43529;SDS011;55654;50.966;6.878;2022-12-07T08:22:43;53.83;;;32.37;;
43529;SDS011;55654;50.966;6.878;2022-12-07T08:25:09;52.37;;;30.87;;
43529;SDS011;55654;50.966;6.878;2022-12-07T08:27:35;49.17;;;30.07;;
43529;SDS011;55654;50.966;6.878;2022-12-07T08:30:02;50.43;;;28.40;;
43529;SDS011;55654;50.966;6.878;2022-12-07T08:32:28;45.40;;;27.77;;
43529;SDS011;55654;50.966;6.878;2022-12-07T08:34:54;44.30;;;28.60;;
43529;SDS011;55654;50.966;6.878;2022-12-07T08:37:20;47.60;;;27.23;;
43529;SDS011;55654;50.966;6.878;2022-12-07T08:39:46;47.53;;;26.67;;
43529;SDS011;55654;50.966;6.878;2022-12-07T08:42:12;42.60;;;27.53;;
43529;SDS011;55654;50.966;6.878;2022-12-07T08:44:38;44.90;;;27.23;;
43529;SDS011;55654;50.966;6.878;2022-12-07T08:47:05;44.03;;;27.63;;
43529;SDS011;55654;50.966;6.878;2022-12-07T08:49:42;44.10;;;27.47;;
43529;SDS011;55654;50.966;6.878;2022-12-07T08:52:11;43.17;;;27.07;;
43529;SDS011;55654;50.966;6.878;2022-12-07T08:54:38;44.37;;;25.60;;
43529;SDS011;55654;50.966;6.878;2022-12-07T08:57:05;35.67;;;24.33;;
43529;SDS011;55654;50.966;6.878;2022-12-07T08:59:32;39.73;;;23.77;;
43529;SDS011;55654;50.966;6.878;2022-12-07T09:02:01;42.87;;;25.90;;
43529;SDS011;55654;50.966;6.878;2022-12-07T09:04:29;39.47;;;21.13;;
43529;SDS011;55654;50.966;6.878;2022-12-07T09:06:56;43.07;;;23.33;;
43529;SDS011;55654;50.966;6.878;2022-12-07T09:09:22;45.87;;;25.17;;
43529;SDS011;55654;50.966;6.878;2022-12-07T09:11:48;35.90;;;24.00;;
43529;SDS011;55654;50.966;6.878;2022-12-07T09:14:14;36.23;;;22.37;;
43529;SDS011;55654;50.966;6.878;2022-12-07T09:16:40;40.83;;;24.80;;
43529;SDS011;55654;50.966;6.878;2022-12-07T09:19:07;37.53;;;20.40;;
43529;SDS011;55654;50.966;6.878;2022-12-07T09:21:33;36.13;;;22.60;;
43529;SDS011;55654;50.966;6.878;2022-12-07T09:24:03;38.37;;;22.97;;
43529;SDS011;55654;50.966;6.878;2022-12-07T09:26:29;41.27;;;23.13;;
43529;SDS011;55654;50.966;6.878;2022-12-07T09:28:55;36.23;;;21.23;;
43529;SDS011;55654;50.966;6.878;2022-12-07T09:31:21;38.57;;;22.57;;
43529;SDS011;55654;50.966;6.878;2022-12-07T09:33:47;34.50;;;21.17;;
43529;SDS011;55654;50.966;6.878;2022-12-07T09:36:18;38.63;;;21.10;;
43529;SDS011;55654;50.966;6.878;2022-12-07T09:38:44;35.17;;;21.20;;
43529;SDS011;55654;50.966;6.878;2022-12-07T09:41:10;33.47;;;21.20;;
43529;SDS011;55654;50.966;6.878;2022-12-07T09:43:36;36.57;;;21.80;;
43529;SDS011;55654;50.966;6.878;2022-12-07T09:46:04;33.80;;;20.20;;
43529;SDS011;55654;50.966;6.878;2022-12-07T09:48:33;36.53;;;20.23;;
43529;SDS011;55654;50.966;6.878;2022-12-07T09:51:17;35.23;;;19.70;;
43529;SDS011;55654;50.966;6.878;2022-12-07T09:53:43;37.70;;;18.87;;
43529;SDS011;55654;50.966;6.878;2022-12-07T09:56:13;30.13;;;17.43;;
43529;SDS011;55654;50.966;6.878;2022-12-07T09:58:40;27.27;;;16.63;;
43529;SDS011;55654;50.966;6.878;2022-12-07T10:01:16;31.43;;;17.10;;
43529;SDS011;55654;50.966;6.878;2022-12-07T10:03:50;27.30;;;16.70;;
43529;SDS011;55654;50.966;6.878;2022-12-07T10:06:16;34.37;;;15.23;;
43529;SDS011;55654;50.966;6.878;2022-12-07T10:08:42;28.83;;;16.13;;
43529;SDS011;55654;50.966;6.878;2022-12-07T10:11:08;30.80;;;16.50;;
43529;SDS011;55654;50.966;6.878;2022-12-07T10:16:01;28.03;;;15.73;;
43529;SDS011;55654;50.966;6.878;2022-12-07T10:18:29;34.20;;;15.47;;
43529;SDS011;55654;50.966;6.878;2022-12-07T10:23:28;26.48;;;15.88;;
43529;SDS011;55654;50.966;6.878;2022-12-07T10:25:54;25.80;;;16.23;;
43529;SDS011;55654;50.966;6.878;2022-12-07T10:28:22;30.33;;;17.73;;
43529;SDS011;55654;50.966;6.878;2022-12-07T10:34:00;32.07;;;17.20;;
43529;SDS011;55654;50.966;6.878;2022-12-07T10:36:21;30.50;;;16.13;;
43529;SDS011;55654;50.966;6.878;2022-12-07T10:38:51;29.77;;;17.37;;
43529;SDS011;55654;50.966;6.878;2022-12-07T10:41:17;27.43;;;16.73;;
43529;SDS011;55654;50.966;6.878;2022-12-07T10:43:46;27.87;;;14.67;;
43529;SDS011;55654;50.966;6.878;2022-12-07T10:54:30;31.02;;;15.05;;
43529;SDS011;55654;50.966;6.878;2022-12-07T10:59:35;26.70;;;14.45;;
43529;SDS011;55654;50.966;6.878;2022-12-07T11:05:19;25.67;;;13.00;;
43529;SDS011;55654;50.966;6.878;2022-12-07T11:10:36;27.67;;;12.03;;
43529;SDS011;55654;50.966;6.878;2022-12-07T11:24:03;23.23;;;12.57;;
43529;SDS011;55654;50.966;6.878;2022-12-07T11:34:28;20.27;;;11.20;;
43529;SDS011;55654;50.966;6.878;2022-12-07T11:36:59;23.10;;;11.57;;
43529;SDS011;55654;50.966;6.878;2022-12-07T11:39:37;24.17;;;11.33;;
43529;SDS011;55654;50.966;6.878;2022-12-07T11:42:16;21.17;;;11.53;;
43529;SDS011;55654;50.966;6.878;2022-12-07T11:44:50;24.23;;;12.10;;
43529;SDS011;55654;50.966;6.878;2022-12-07T11:49:50;28.37;;;12.20;;
43529;SDS011;55654;50.966;6.878;2022-12-07T11:54:50;28.50;;;12.17;;
43529;SDS011;55654;50.966;6.878;2022-12-07T11:57:32;25.67;;;12.33;;
43529;SDS011;55654;50.966;6.878;2022-12-07T12:00:04;24.13;;;14.50;;
43529;SDS011;55654;50.966;6.878;2022-12-07T12:02:34;27.87;;;12.93;;
43529;SDS011;55654;50.966;6.878;2022-12-07T12:05:13;27.43;;;13.67;;
43529;SDS011;55654;50.966;6.878;2022-12-07T12:07:41;28.20;;;14.27;;
43529;SDS011;55654;50.966;6.878;2022-12-07T12:13:14;35.57;;;16.90;;
43529;SDS011;55654;50.966;6.878;2022-12-07T12:15:51;29.87;;;15.97;;
43529;SDS011;55654;50.966;6.878;2022-12-07T12:18:26;33.10;;;14.90;;
43529;SDS011;55654;50.966;6.878;2022-12-07T12:20:57;32.63;;;17.98;;
43529;SDS011;55654;50.966;6.878;2022-12-07T12:23:40;27.57;;;15.63;;
43529;SDS011;55654;50.966;6.878;2022-12-07T12:26:20;30.53;;;15.67;;
43529;SDS011;55654;50.966;6.878;2022-12-07T12:28:57;31.13;;;15.80;;
43529;SDS011;55654;50.966;6.878;2022-12-07T12:33:54;31.10;;;14.87;;
43529;SDS011;55654;50.966;6.878;2022-12-07T12:49:33;25.53;;;14.60;;
43529;SDS011;55654;50.966;6.878;2022-12-07T13:04:52;22.10;;;11.63;;
43529;SDS011;55654;50.966;6.878;2022-12-07T13:10:03;25.10;;;12.37;;
43529;SDS011;55654;50.966;6.878;2022-12-07T13:12:32;24.23;;;12.23;;
43529;SDS011;55654;50.966;6.878;2022-12-07T13:14:58;25.50;;;12.40;;
43529;SDS011;55654;50.966;6.878;2022-12-07T13:19:57;19.38;;;11.85;;
43529;SDS011;55654;50.966;6.878;2022-12-07T13:25:07;22.25;;;13.07;;
43529;SDS011;55654;50.966;6.878;2022-12-07T13:27:41;24.85;;;11.75;;
43529;SDS011;55654;50.966;6.878;2022-12-07T13:30:13;22.67;;;12.20;;
43529;SDS011;55654;50.966;6.878;2022-12-07T13:32:39;26.73;;;13.30;;
43529;SDS011;55654;50.966;6.878;2022-12-07T13:35:27;25.73;;;11.63;;
43529;SDS011;55654;50.966;6.878;2022-12-07T13:37:51;20.50;;;11.17;;
43529;SDS011;55654;50.966;6.878;2022-12-07T13:40:21;23.00;;;12.10;;
43529;SDS011;55654;50.966;6.878;2022-12-07T13:42:47;20.50;;;12.13;;
43529;SDS011;55654;50.966;6.878;2022-12-07T13:45:20;19.43;;;11.10;;
43529;SDS011;55654;50.966;6.878;2022-12-07T13:47:48;25.90;;;12.17;;
43529;SDS011;55654;50.966;6.878;2022-12-07T13:52:54;23.90;;;11.30;;
43529;SDS011;55654;50.966;6.878;2022-12-07T13:55:20;23.97;;;10.53;;
43529;SDS011;55654;50.966;6.878;2022-12-07T13:57:47;27.33;;;13.10;;
43529;SDS011;55654;50.966;6.878;2022-12-07T14:00:15;22.50;;;11.33;;
43529;SDS011;55654;50.966;6.878;2022-12-07T14:02:54;21.50;;;10.83;;
43529;SDS011;55654;50.966;6.878;2022-12-07T14:05:24;20.47;;;10.53;;
43529;SDS011;55654;50.966;6.878;2022-12-07T14:12:49;21.90;;;10.87;;
43529;SDS011;55654;50.966;6.878;2022-12-07T14:15:20;17.70;;;11.13;;
43529;SDS011;55654;50.966;6.878;2022-12-07T14:17:50;24.07;;;11.80;;
43529;SDS011;55654;50.966;6.878;2022-12-07T14:22:58;23.83;;;11.63;;
43529;SDS011;55654;50.966;6.878;2022-12-07T14:25:34;24.20;;;11.90;;
43529;SDS011;55654;50.966;6.878;2022-12-07T14:28:10;23.27;;;11.10;;
43529;SDS011;55654;50.966;6.878;2022-12-07T14:30:49;23.03;;;13.10;;
43529;SDS011;55654;50.966;6.878;2022-12-07T14:33:15;22.70;;;12.70;;
43529;SDS011;55654;50.966;6.878;2022-12-07T14:35:42;24.30;;;13.17;;
43529;SDS011;55654;50.966;6.878;2022-12-07T14:38:08;25.53;;;12.53;;
43529;SDS011;55654;50.966;6.878;2022-12-07T14:40:34;29.77;;;12.47;;
43529;SDS011;55654;50.966;6.878;2022-12-07T14:43:01;21.60;;;12.37;;
43529;SDS011;55654;50.966;6.878;2022-12-07T14:45:28;17.30;;;11.77;;
43529;SDS011;55654;50.966;6.878;2022-12-07T14:47:54;18.83;;;11.40;;
43529;SDS011;55654;50.966;6.878;2022-12-07T14:50:20;19.53;;;12.10;;
43529;SDS011;55654;50.966;6.878;2022-12-07T14:52:51;26.23;;;13.83;;
43529;SDS011;55654;50.966;6.878;2022-12-07T14:55:25;24.05;;;12.38;;
43529;SDS011;55654;50.966;6.878;2022-12-07T14:57:52;22.33;;;12.23;;
43529;SDS011;55654;50.966;6.878;2022-12-07T15:00:21;20.93;;;12.07;;
43529;SDS011;55654;50.966;6.878;2022-12-07T15:02:50;28.57;;;12.10;;
43529;SDS011;55654;50.966;6.878;2022-12-07T15:05:16;21.47;;;12.30;;
43529;SDS011;55654;50.966;6.878;2022-12-07T15:07:43;26.90;;;13.53;;
43529;SDS011;55654;50.966;6.878;2022-12-07T15:10:30;20.43;;;9.40;;
43529;SDS011;55654;50.966;6.878;2022-12-07T15:12:58;20.10;;;11.33;;
43529;SDS011;55654;50.966;6.878;2022-12-07T15:15:44;22.73;;;10.27;;
43529;SDS011;55654;50.966;6.878;2022-12-07T15:18:13;20.53;;;10.57;;
43529;SDS011;55654;50.966;6.878;2022-12-07T15:20:41;14.87;;;8.53;;
43529;SDS011;55654;50.966;6.878;2022-12-07T15:23:07;17.67;;;8.60;;
43529;SDS011;55654;50.966;6.878;2022-12-07T15:25:33;13.80;;;8.17;;
43529;SDS011;55654;50.966;6.878;2022-12-07T15:28:00;16.87;;;7.60;;
43529;SDS011;55654;50.966;6.878;2022-12-07T15:30:26;13.23;;;7.63;;
43529;SDS011;55654;50.966;6.878;2022-12-07T15:32:52;14.00;;;7.07;;
43529;SDS011;55654;50.966;6.878;2022-12-07T15:35:21;18.33;;;8.33;;
43529;SDS011;55654;50.966;6.878;2022-12-07T15:37:50;19.27;;;7.97;;
43529;SDS011;55654;50.966;6.878;2022-12-07T15:40:18;13.57;;;7.57;;
43529;SDS011;55654;50.966;6.878;2022-12-07T15:42:44;21.23;;;10.47;;
43529;SDS011;55654;50.966;6.878;2022-12-07T15:45:16;21.17;;;13.93;;
43529;SDS011;55654;50.966;6.878;2022-12-07T15:47:43;30.13;;;14.73;;
43529;SDS011;55654;50.966;6.878;2022-12-07T15:50:13;23.20;;;12.40;;
43529;SDS011;55654;50.966;6.878;2022-12-07T15:52:40;24.43;;;11.00;;
43529;SDS011;55654;50.966;6.878;2022-12-07T15:55:06;19.20;;;11.13;;
43529;SDS011;55654;50.966;6.878;2022-12-07T15:57:33;17.73;;;10.67;;
43529;SDS011;55654;50.966;6.878;2022-12-07T16:00:00;26.20;;;11.63;;
43529;SDS011;55654;50.966;6.878;2022-12-07T16:02:29;19.90;;;12.00;;
43529;SDS011;55654;50.966;6.878;2022-12-07T16:04:55;21.50;;;13.47;;
43529;SDS011;55654;50.966;6.878;2022-12-07T16:07:21;19.67;;;13.30;;
43529;SDS011;55654;50.966;6.878;2022-12-07T16:09:50;27.07;;;13.97;;
43529;SDS011;55654;50.966;6.878;2022-12-07T16:12:16;21.17;;;14.23;;
43529;SDS011;55654;50.966;6.878;2022-12-07T16:14:42;21.77;;;13.47;;
43529;SDS011;55654;50.966;6.878;2022-12-07T16:17:09;25.13;;;13.77;;
43529;SDS011;55654;50.966;6.878;2022-12-07T16:19:35;28.53;;;13.57;;
43529;SDS011;55654;50.966;6.878;2022-12-07T16:22:02;31.67;;;14.30;;
43529;SDS011;55654;50.966;6.878;2022-12-07T16:24:29;26.33;;;13.80;;
43529;SDS011;55654;50.966;6.878;2022-12-07T16:26:55;18.83;;;11.63;;
43529;SDS011;55654;50.966;6.878;2022-12-07T16:29:23;20.07;;;11.67;;
43529;SDS011;55654;50.966;6.878;2022-12-07T16:31:50;18.63;;;10.37;;
43529;SDS011;55654;50.966;6.878;2022-12-07T16:34:17;24.67;;;11.27;;
43529;SDS011;55654;50.966;6.878;2022-12-07T16:36:43;17.13;;;10.80;;
43529;SDS011;55654;50.966;6.878;2022-12-07T16:39:09;21.13;;;11.57;;
43529;SDS011;55654;50.966;6.878;2022-12-07T16:41:35;18.20;;;11.97;;
43529;SDS011;55654;50.966;6.878;2022-12-07T16:44:03;20.70;;;11.40;;
43529;SDS011;55654;50.966;6.878;2022-12-07T16:46:31;20.00;;;10.77;;